Time;durP1;ratioP1;P1;durP2;ratioP2;P2;SDS_P1;SDS_P2;PMS_P1;PMS_P2;Temp;Humidity;BMP_temperature;BMP_pressure;BME280_temperature;BME280_humidity;BME280_pressure;Samples;Min_cycle;Max_cycle;Signal;HPM_P1;HPM_P2
2022/07/30 00:01:33;;;;;;;17.98;13.43;;;;;;;26.15;60.55;101005.00;4950831;29;20521;-81
2022/07/30 00:04:02;;;;;;;18.70;15.07;;;;;;;25.75;60.65;100942.91;4951243;29;20094;-83
2022/07/30 00:06:29;;;;;;;18.38;14.40;;;;;;;26.16;59.89;100987.63;4966873;28;20071;-80
2022/07/30 00:08:56;;;;;;;18.98;14.82;;;;;;;26.27;59.92;101007.78;4966931;28;20398;-81
2022/07/30 00:11:23;;;;;;;16.38;14.00;;;;;;;26.13;60.48;101004.41;4951084;29;20118;-81
2022/07/30 00:13:53;;;;;;;17.42;12.88;;;;;;;26.15;60.35;101005.84;4950677;29;20409;-81
2022/07/30 00:16:20;;;;;;;19.05;14.45;;;;;;;25.99;60.26;100981.97;4951061;29;20059;-82
2022/07/30 00:18:47;;;;;;;17.67;12.32;;;;;;;25.35;60.49;100887.16;4951111;29;20310;-80
2022/07/30 00:21:14;;;;;;;17.52;13.82;;;;;;;25.20;60.25;100866.91;4951000;29;20055;-81
2022/07/30 00:24:01;;;;;;;16.98;14.10;;;;;;;26.00;60.65;100991.81;4944538;28;20051;-80
2022/07/30 00:26:31;;;;;;;17.20;14.63;;;;;;;25.66;60.62;100936.97;4947405;29;20086;-80
2022/07/30 00:29:01;;;;;;;17.83;13.60;;;;;;;25.27;60.43;100884.78;4946974;29;20051;-80
2022/07/30 00:31:30;;;;;;;15.07;13.43;;;;;;;25.89;60.45;100987.13;4946996;29;20395;-80
2022/07/30 00:33:59;;;;;;;24.95;15.35;;;;;;;25.85;60.38;100967.72;4947241;29;20067;-79
2022/07/30 00:36:26;;;;;;;20.63;15.00;;;;;;;26.07;60.19;101003.44;4931291;29;20066;-81
2022/07/30 00:38:54;;;;;;;23.17;15.73;;;;;;;26.01;60.24;100993.47;4933190;29;20114;-80
2022/07/30 00:41:21;;;;;;;18.15;16.17;;;;;;;25.88;60.56;100972.72;4949307;28;20059;-81
2022/07/30 00:43:48;;;;;;;21.90;16.95;;;;;;;26.11;60.44;101001.91;4953234;29;20067;-80
2022/07/30 00:46:15;;;;;;;20.88;17.33;;;;;;;26.07;60.47;101003.44;4942243;29;20052;-78
2022/07/30 00:48:42;;;;;;;19.98;15.95;;;;;;;26.01;61.09;101004.34;4937045;29;20098;-82
2022/07/30 00:51:09;;;;;;;25.20;18.02;;;;;;;25.51;60.65;100918.34;4948194;29;20392;-82
2022/07/30 00:53:37;;;;;;;26.88;19.10;;;;;;;26.08;60.84;101010.53;4932408;29;20052;-81
2022/07/30 00:56:04;;;;;;;25.77;18.00;;;;;;;25.98;60.72;101016.50;4931300;29;20051;-81
2022/07/30 00:58:31;;;;;;;30.17;21.52;;;;;;;25.94;61.23;100993.53;4946939;29;20115;-83
2022/07/30 01:00:58;;;;;;;25.15;20.80;;;;;;;25.93;61.32;101016.38;4932400;29;20078;-82
2022/07/30 01:03:25;;;;;;;32.38;20.55;;;;;;;25.93;61.67;101007.38;4931932;29;20506;-82
2022/07/30 01:05:52;;;;;;;25.48;21.83;;;;;;;25.74;61.30;100966.56;4946177;29;20130;-80
2022/07/30 01:08:18;;;;;;;26.40;21.92;;;;;;;25.55;61.51;100956.78;4946121;29;20054;-81
2022/07/30 01:10:45;;;;;;;24.92;20.58;;;;;;;25.50;61.10;100937.59;4946067;29;20494;-81
2022/07/30 01:13:12;;;;;;;26.10;20.20;;;;;;;25.91;61.52;100998.63;4946362;29;20075;-81
2022/07/30 01:15:39;;;;;;;25.42;22.05;;;;;;;25.97;61.20;101003.13;4946299;29;20051;-79
2022/07/30 01:18:11;;;;;;;23.10;19.83;;;;;;;25.58;61.04;100953.59;4930540;29;20083;-81
2022/07/30 01:21:06;;;;;;;26.45;21.02;;;;;;;25.14;61.25;100880.25;4946233;29;20498;-81
2022/07/30 01:23:40;;;;;;;26.42;20.98;;;;;;;25.75;60.66;100957.38;4930047;29;20580;-79
2022/07/30 01:26:11;;;;;;;25.77;19.77;;;;;;;25.86;61.00;100990.31;4946238;29;20131;-81
2022/07/30 01:28:41;;;;;;;28.67;19.60;;;;;;;25.00;60.77;100829.88;4946109;29;20492;-80
2022/07/30 01:31:10;;;;;;;23.63;21.10;;;;;;;25.64;61.07;100933.66;4945409;29;20212;-82
2022/07/30 01:33:40;;;;;;;28.52;22.58;;;;;;;25.30;60.91;100867.19;4945941;29;20063;-81
2022/07/30 01:36:10;;;;;;;22.92;19.65;;;;;;;25.75;60.98;100946.50;4946022;29;20098;-83
2022/07/30 01:38:40;;;;;;;24.45;19.65;;;;;;;24.95;61.05;100832.44;4931301;29;20070;-80
2022/07/30 01:41:07;;;;;;;26.83;20.88;;;;;;;25.77;60.80;100943.53;4931194;29;20162;-80
2022/07/30 01:43:34;;;;;;;25.67;20.48;;;;;;;25.90;61.20;100975.19;4945737;29;20055;-80
2022/07/30 01:46:03;;;;;;;25.30;20.30;;;;;;;25.90;61.18;100978.75;4931363;29;20052;-82
2022/07/30 01:48:34;;;;;;;24.95;19.83;;;;;;;25.57;60.74;100912.00;4945636;29;20537;-81
2022/07/30 01:51:04;;;;;;;22.40;19.58;;;;;;;25.95;61.10;100988.97;4930967;29;20052;-80
2022/07/30 01:53:37;;;;;;;21.95;18.50;;;;;;;25.90;61.24;100972.47;4945406;29;20620;-82
2022/07/30 01:56:06;;;;;;;23.98;19.10;;;;;;;25.49;61.33;100919.63;4946166;29;20185;-82
2022/07/30 01:58:39;;;;;;;24.60;17.70;;;;;;;25.94;61.23;100990.00;4945455;29;20118;-81
2022/07/30 02:01:08;;;;;;;19.35;15.30;;;;;;;25.49;60.66;100903.34;4946161;29;20106;-79
2022/07/30 02:03:35;;;;;;;17.95;16.05;;;;;;;25.37;60.23;100876.91;4929411;29;20193;-82
2022/07/30 02:06:09;;;;;;;18.52;15.95;;;;;;;25.51;60.19;100906.63;4930107;29;20051;-81
2022/07/30 02:08:44;;;;;;;17.15;14.23;;;;;;;25.54;60.08;100900.75;4945628;29;20063;-80
2022/07/30 02:12:27;;;;;;;15.50;12.50;;;;;;;25.78;60.05;100946.03;4945642;29;20110;-81
2022/07/30 02:14:10;;;;;;;13.10;11.35;;;;;;;25.47;59.69;100889.13;4931146;29;20055;-79
2022/07/30 02:16:41;;;;;;;12.90;10.95;;;;;;;26.06;59.38;100982.72;4929804;29;20059;-80
2022/07/30 02:19:13;;;;;;;16.23;13.10;;;;;;;25.68;59.44;100921.28;4945746;29;20063;-83
2022/07/30 02:21:44;;;;;;;;;;;;;;;26.05;59.21;100982.97;4930743;29;20421;-81
2022/07/30 02:24:20;;;;;;;12.35;10.75;;;;;;;25.50;59.47;100888.66;4943028;29;19923;-79
2022/07/30 02:26:54;;;;;;;10.93;9.77;;;;;;;25.43;59.41;100887.91;4946203;29;20062;-81
2022/07/30 02:29:22;;;;;;;14.50;11.60;;;;;;;26.00;58.99;100970.06;4950205;29;20052;-81
2022/07/30 02:31:51;;;;;;;13.77;11.25;;;;;;;25.62;59.52;100908.59;4932601;29;20052;-80
2022/07/30 02:34:22;;;;;;;14.95;9.90;;;;;;;26.07;58.65;100969.94;4946259;29;20425;-81
2022/07/30 02:36:50;;;;;;;10.57;9.57;;;;;;;26.03;58.79;100958.72;4945817;29;20082;-81
2022/07/30 02:39:18;;;;;;;10.25;9.20;;;;;;;26.05;58.94;100951.16;4945617;29;20079;-79
2022/07/30 02:41:46;;;;;;;10.65;9.65;;;;;;;25.98;58.54;100942.25;4946130;29;20383;-80
2022/07/30 02:44:18;;;;;;;10.48;9.48;;;;;;;25.90;58.60;100934.38;4950704;29;20074;-79
2022/07/30 02:46:46;;;;;;;15.05;8.85;;;;;;;26.13;58.44;100948.09;4952927;29;20040;-81
2022/07/30 02:49:17;;;;;;;16.60;10.13;;;;;;;25.91;57.87;100887.94;4932148;29;20040;-81
2022/07/30 02:51:47;;;;;;;12.65;9.63;;;;;;;25.64;58.19;100857.53;4944991;29;20281;-80
2022/07/30 02:54:17;;;;;;;14.45;11.00;;;;;;;25.98;58.27;100934.09;4931206;29;20051;-80
2022/07/30 02:56:48;;;;;;;13.88;11.43;;;;;;;26.01;58.18;100945.31;4945512;29;20288;-81
2022/07/30 02:59:17;;;;;;;13.80;11.23;;;;;;;26.07;58.28;100954.47;4945572;29;20566;-78
2022/07/30 03:01:45;;;;;;;10.20;8.55;;;;;;;25.78;58.59;100910.69;4944962;29;20189;-81
2022/07/30 03:04:13;;;;;;;10.25;8.88;;;;;;;26.00;58.56;100948.28;4947578;28;20051;-82
2022/07/30 03:06:42;;;;;;;10.02;9.05;;;;;;;26.10;58.03;100958.63;4949192;29;20055;-80
2022/07/30 03:09:09;;;;;;;9.02;8.13;;;;;;;25.96;58.10;100936.22;4949211;29;20060;-81
2022/07/30 03:11:36;;;;;;;11.23;8.25;;;;;;;25.62;57.82;100875.97;4932931;29;20043;-80
2022/07/30 03:14:04;;;;;;;9.75;8.25;;;;;;;25.44;57.64;100846.09;4948649;29;20219;-80
2022/07/30 03:16:35;;;;;;;8.63;7.63;;;;;;;25.79;57.64;100904.16;4948725;29;20107;-80
2022/07/30 03:19:08;;;;;;;8.88;7.97;;;;;;;25.86;57.44;100920.44;4948123;29;20062;-80
2022/07/30 03:21:37;;;;;;;7.93;7.22;;;;;;;25.38;57.21;100829.63;4948434;29;20075;-81
2022/07/30 03:24:06;;;;;;;10.25;7.80;;;;;;;25.35;57.48;100826.56;4951775;29;20055;-82
2022/07/30 03:26:35;;;;;;;10.65;8.20;;;;;;;25.40;57.10;100836.75;4951289;29;20063;-82
2022/07/30 03:29:02;;;;;;;9.15;7.90;;;;;;;26.09;57.20;100957.78;4951527;29;20482;-82
2022/07/30 03:31:29;;;;;;;11.93;9.10;;;;;;;25.63;57.37;100887.66;4951204;29;20055;-80
2022/07/30 03:34:05;;;;;;;9.98;7.93;;;;;;;25.90;57.60;100937.09;4952893;28;20105;-82
2022/07/30 03:36:33;;;;;;;8.20;6.53;;;;;;;25.97;57.80;100946.88;4952509;28;20055;-79
2022/07/30 03:39:01;;;;;;;8.43;7.57;;;;;;;25.84;57.43;100916.25;4951409;29;20059;-79
2022/07/30 03:41:29;;;;;;;8.40;7.60;;;;;;;25.57;57.33;100881.25;4951505;29;20059;-78
2022/07/30 03:43:59;;;;;;;9.60;7.82;;;;;;;25.93;57.31;100932.06;4967296;28;20051;-80
2022/07/30 03:46:26;;;;;;;10.52;7.28;;;;;;;26.05;57.52;100945.72;4935541;29;20054;-80
2022/07/30 03:48:56;;;;;;;9.35;8.40;;;;;;;26.01;57.09;100945.31;4952120;28;20051;-80
2022/07/30 03:51:26;;;;;;;7.68;6.85;;;;;;;25.87;57.07;100913.94;4951326;29;20047;-81
2022/07/30 03:53:59;;;;;;;8.10;7.32;;;;;;;25.27;57.22;100838.59;4952672;28;20478;-80
2022/07/30 03:56:26;;;;;;;12.10;8.18;;;;;;;25.88;57.40;100933.81;4951418;29;20063;-81
2022/07/30 03:58:53;;;;;;;8.98;7.60;;;;;;;26.05;57.15;100972.91;4950757;29;20055;-81
2022/07/30 04:01:24;;;;;;;11.00;7.57;;;;;;;25.84;57.07;100940.72;4952167;28;20383;-80
2022/07/30 04:03:52;;;;;;;9.10;6.90;;;;;;;25.23;56.83;100840.09;4967024;28;20114;-80
2022/07/30 04:06:18;;;;;;;7.78;6.97;;;;;;;25.49;57.09;100887.84;4951167;29;20513;-80
2022/07/30 04:08:45;;;;;;;8.45;7.57;;;;;;;25.62;57.25;100922.19;4951162;29;20055;-80
2022/07/30 04:11:12;;;;;;;9.05;7.07;;;;;;;26.09;56.96;100995.03;4952130;28;20118;-81
2022/07/30 04:13:39;;;;;;;11.68;7.72;;;;;;;26.15;56.62;100994.94;4951131;29;20075;-80
2022/07/30 04:16:15;;;;;;;12.35;7.10;;;;;;;26.07;57.18;100988.97;4949864;28;20477;-80
2022/07/30 04:19:05;;;;;;;9.05;7.05;;;;;;;25.44;57.00;100884.13;4952136;28;20438;-80
2022/07/30 04:21:32;;;;;;;8.57;7.18;;;;;;;25.73;56.67;100924.13;4950580;29;20130;-81
2022/07/30 04:24:00;;;;;;;9.00;8.07;;;;;;;25.93;56.18;100953.81;4950220;29;20110;-80
2022/07/30 04:26:33;;;;;;;11.40;8.45;;;;;;;26.21;56.37;101006.78;4950990;29;20078;-79
2022/07/30 04:29:05;;;;;;;7.80;6.88;;;;;;;26.15;56.29;101022.16;4950900;29;20501;-79
2022/07/30 04:31:35;;;;;;;9.70;8.02;;;;;;;25.95;56.74;100988.97;4950824;29;20059;-82
2022/07/30 04:34:06;;;;;;;9.82;7.60;;;;;;;26.11;56.91;101020.13;4950913;29;20058;-81
2022/07/30 04:36:34;;;;;;;9.23;6.47;;;;;;;25.88;57.12;100993.66;4950905;29;20055;-80
2022/07/30 04:39:02;;;;;;;9.80;8.90;;;;;;;25.67;57.10;100971.25;4951150;29;20051;-80
2022/07/30 04:41:29;;;;;;;9.80;8.48;;;;;;;26.02;57.58;101033.19;4950744;28;20064;-82
2022/07/30 04:44:15;;;;;;;11.32;8.68;;;;;;;25.10;57.88;100910.84;4954271;29;20070;-81
2022/07/30 04:46:41;;;;;;;10.88;9.15;;;;;;;25.79;58.20;101029.25;4955412;29;20058;-81
2022/07/30 04:49:10;;;;;;;9.50;8.40;;;;;;;25.57;58.69;101009.03;4955412;29;20059;-80
2022/07/30 04:51:37;;;;;;;11.65;8.75;;;;;;;25.81;58.49;101037.19;4955359;29;20417;-82
2022/07/30 04:54:07;;;;;;;13.48;9.07;;;;;;;25.40;58.66;100981.59;4951878;29;20047;-80
2022/07/30 04:56:42;;;;;;;15.57;11.18;;;;;;;25.79;58.34;101029.25;4952407;29;20107;-80
2022/07/30 04:59:22;;;;;;;12.75;10.48;;;;;;;25.62;58.48;101019.22;4952092;29;20055;-80
2022/07/30 05:01:51;;;;;;;12.10;10.65;;;;;;;25.58;58.75;101027.84;4951697;29;20063;-81
2022/07/30 05:04:20;;;;;;;14.50;11.02;;;;;;;25.23;58.35;100948.75;4951464;29;20047;-81
2022/07/30 05:06:48;;;;;;;14.50;13.00;;;;;;;25.69;58.78;101041.72;4952212;29;20085;-81
2022/07/30 05:09:15;;;;;;;12.75;10.57;;;;;;;25.54;59.54;101031.22;4951706;29;20055;-81
2022/07/30 05:11:50;;;;;;;20.98;12.57;;;;;;;25.57;59.56;101053.34;4951652;29;20047;-81
2022/07/30 05:14:16;;;;;;;21.75;11.60;;;;;;;25.53;59.59;101034.97;4951395;29;20051;-80
2022/07/30 05:16:43;;;;;;;17.65;13.45;;;;;;;25.20;59.78;100986.44;4967884;28;20055;-80
2022/07/30 05:19:10;;;;;;;16.63;14.15;;;;;;;25.53;59.88;101034.97;4953234;28;20333;-80
2022/07/30 05:21:37;;;;;;;17.27;14.80;;;;;;;25.26;58.77;100963.78;4952738;29;20610;-79
2022/07/30 05:24:04;;;;;;;20.67;14.27;;;;;;;25.72;59.03;101050.25;4962619;29;20459;-80
2022/07/30 05:26:31;;;;;;;21.33;14.65;;;;;;;25.25;59.30;100978.44;4963704;28;20048;-83
2022/07/30 05:28:58;;;;;;;16.83;14.52;;;;;;;25.54;59.20;101010.31;4967017;29;20047;-82
2022/07/30 05:31:24;;;;;;;16.38;12.65;;;;;;;25.73;59.19;101051.94;4968506;29;20047;-82
2022/07/30 05:33:54;;;;;;;17.75;12.52;;;;;;;25.58;59.19;101022.41;4969387;29;20079;-80
2022/07/30 05:36:25;;;;;;;15.57;12.52;;;;;;;25.68;59.22;101043.63;4959096;29;20059;-81
2022/07/30 05:38:52;;;;;;;15.73;13.13;;;;;;;25.74;59.42;101044.59;4951571;29;20043;-80
2022/07/30 05:41:19;;;;;;;15.98;13.95;;;;;;;25.72;59.12;101033.94;4951304;29;20058;-81
2022/07/30 05:43:58;;;;;;;17.35;15.27;;;;;;;25.78;59.24;101035.75;4950688;29;20458;-80
2022/07/30 05:46:24;;;;;;;17.02;13.88;;;;;;;25.79;59.31;101045.56;4951163;29;20043;-83
2022/07/30 05:48:52;;;;;;;20.80;13.80;;;;;;;25.64;58.95;100993.47;4950246;29;20210;-82
2022/07/30 05:51:20;;;;;;;15.68;13.90;;;;;;;25.63;59.76;101026.31;4950409;29;20079;-81
2022/07/30 05:53:48;;;;;;;19.00;13.88;;;;;;;25.60;59.70;101014.00;4950696;29;20051;-81
2022/07/30 05:56:15;;;;;;;16.67;14.07;;;;;;;25.93;59.21;101046.28;4952020;28;20047;-81
2022/07/30 05:58:42;;;;;;;17.65;13.43;;;;;;;25.76;59.49;101027.00;4950936;29;20050;-80
2022/07/30 06:01:08;;;;;;;16.15;14.07;;;;;;;25.98;59.30;101048.34;4951504;29;20062;-83
2022/07/30 06:03:37;;;;;;;16.67;12.82;;;;;;;26.20;58.35;101052.22;4949884;29;20130;-79
2022/07/30 06:06:05;;;;;;;16.50;13.88;;;;;;;25.98;58.31;101004.81;4966100;28;20481;-79
2022/07/30 06:08:33;;;;;;;16.35;13.00;;;;;;;26.00;59.11;101051.66;4950079;29;20119;-81
2022/07/30 06:10:59;;;;;;;15.30;13.75;;;;;;;25.88;59.42;101038.00;4949541;29;20442;-82
2022/07/30 06:13:26;;;;;;;18.88;13.30;;;;;;;25.85;59.48;101024.81;4949333;29;20062;-81
2022/07/30 06:15:53;;;;;;;16.20;13.05;;;;;;;24.89;58.83;100850.47;4949513;29;20090;-81
2022/07/30 06:18:20;;;;;;;16.75;13.30;;;;;;;24.90;58.56;100835.00;4949869;29;20082;-82
2022/07/30 06:20:50;;;;;;;16.13;12.20;;;;;;;25.82;58.37;100983.63;4949296;29;20051;-81
2022/07/30 06:23:18;;;;;;;15.13;12.57;;;;;;;26.05;58.37;101004.72;4950514;28;20560;-78
2022/07/30 06:25:46;;;;;;;14.85;11.98;;;;;;;26.24;58.46;101047.19;4950447;28;20059;-80
2022/07/30 06:28:14;;;;;;;16.70;13.25;;;;;;;26.20;58.72;101046.78;4949392;29;20075;-81
2022/07/30 06:31:01;;;;;;;22.92;13.55;;;;;;;26.19;58.13;101028.81;4949420;29;20054;-80
2022/07/30 06:33:28;;;;;;;15.43;12.68;;;;;;;26.40;58.33;101051.13;4948834;29;20062;-80
2022/07/30 06:35:55;;;;;;;17.20;13.82;;;;;;;25.62;58.13;100930.34;4930170;29;20055;-80
2022/07/30 06:38:22;;;;;;;20.00;15.63;;;;;;;26.13;58.08;100997.06;4932870;29;20103;-81
2022/07/30 06:40:48;;;;;;;15.95;12.70;;;;;;;25.98;58.69;100988.50;4953360;29;20552;-82
2022/07/30 06:43:17;;;;;;;17.67;12.07;;;;;;;26.10;58.87;101008.41;4953547;29;20043;-81
2022/07/30 06:45:44;;;;;;;15.75;13.35;;;;;;;26.41;58.42;101050.91;4957775;28;20084;-81
2022/07/30 06:48:11;;;;;;;13.60;12.20;;;;;;;25.87;57.65;100938.41;4963297;29;20418;-82
2022/07/30 06:50:40;;;;;;;13.73;11.95;;;;;;;26.40;57.74;101034.78;4954371;29;20058;-79
2022/07/30 06:53:07;;;;;;;14.95;10.57;;;;;;;26.43;58.03;101037.06;4953376;29;20560;-81
2022/07/30 06:55:34;;;;;;;16.30;12.65;;;;;;;26.63;57.85;101056.69;4954974;29;20454;-83
2022/07/30 06:58:01;;;;;;;13.65;12.20;;;;;;;26.48;57.56;101025.47;4953613;29;20118;-82
2022/07/30 07:00:27;;;;;;;13.55;11.60;;;;;;;26.55;57.04;101010.72;4953953;29;20063;-80
2022/07/30 07:02:54;;;;;;;20.25;13.32;;;;;;;26.61;57.75;101041.66;4954364;29;20051;-80
2022/07/30 07:05:22;;;;;;;16.90;12.75;;;;;;;26.82;57.33;101051.16;4953595;29;20054;-82
2022/07/30 07:07:49;;;;;;;20.10;13.52;;;;;;;26.87;57.07;101048.59;4969379;28;20663;-81
2022/07/30 07:10:25;;;;;;;13.68;11.98;;;;;;;26.89;56.87;101049.16;4953605;29;20207;-81
2022/07/30 07:12:52;;;;;;;16.45;13.07;;;;;;;25.93;57.40;100882.28;4953569;29;20043;-81
2022/07/30 07:15:19;;;;;;;17.60;12.45;;;;;;;26.89;56.96;101038.28;4953819;29;20051;-77
2022/07/30 07:18:02;;;;;;;14.43;12.32;;;;;;;26.79;57.07;101021.69;4954046;28;20133;-81
2022/07/30 07:20:31;;;;;;;18.35;14.73;;;;;;;26.73;57.76;101033.53;4954046;28;20066;-81
2022/07/30 07:23:00;;;;;;;16.88;13.40;;;;;;;26.98;57.74;101064.13;4951958;29;20044;-82
2022/07/30 07:25:34;;;;;;;15.23;13.02;;;;;;;26.95;57.78;101059.16;4952788;29;20055;-82
2022/07/30 07:28:01;;;;;;;16.75;14.90;;;;;;;27.11;57.47;101067.69;4952864;29;20059;-80
2022/07/30 07:30:39;;;;;;;19.85;15.10;;;;;;;26.29;57.24;100941.19;4953658;29;20071;-81
2022/07/30 07:33:07;;;;;;;19.75;15.25;;;;;;;27.15;56.85;101072.44;4952565;29;20055;-79
2022/07/30 07:35:40;;;;;;;16.33;12.18;;;;;;;27.06;56.85;101066.53;4953216;28;20610;-79
2022/07/30 07:38:19;;;;;;;15.07;12.32;;;;;;;26.93;56.83;101038.66;4952924;28;20130;-80
2022/07/30 07:40:46;;;;;;;15.95;14.25;;;;;;;27.20;56.41;101061.69;4954466;29;20513;-79
2022/07/30 07:43:14;;;;;;;14.40;12.38;;;;;;;27.12;56.91;101058.47;4970026;28;20054;-79
2022/07/30 07:45:44;;;;;;;13.77;11.60;;;;;;;27.27;56.06;101076.03;4953915;29;20051;-83
2022/07/30 07:48:11;;;;;;;11.18;9.98;;;;;;;26.81;54.94;100976.81;4955546;28;20065;-80
2022/07/30 07:50:38;;;;;;;11.07;9.98;;;;;;;27.36;55.24;101075.69;4954036;28;20113;-81
2022/07/30 07:53:05;;;;;;;13.45;10.15;;;;;;;27.01;54.75;100998.25;4953812;29;20106;-81
2022/07/30 07:55:32;;;;;;;14.35;10.63;;;;;;;27.43;54.92;101085.41;4953277;29;20521;-81
2022/07/30 07:57:59;;;;;;;16.15;11.25;;;;;;;27.44;55.06;101083.50;4952246;29;20051;-80
2022/07/30 08:00:29;;;;;;;13.18;10.93;;;;;;;27.11;55.71;101041.25;4952957;29;20801;-81
2022/07/30 08:02:56;;;;;;;12.13;10.75;;;;;;;27.35;55.29;101052.22;4953247;28;20554;-81
2022/07/30 08:05:23;;;;;;;16.77;11.98;;;;;;;27.68;54.78;101087.06;4954996;28;20055;-81
2022/07/30 08:08:10;;;;;;;23.88;10.98;;;;;;;27.52;55.29;101068.69;4956236;29;20107;-81
2022/07/30 08:10:37;;;;;;;12.80;11.48;;;;;;;27.65;54.31;101082.09;4952957;29;20481;-81
2022/07/30 08:13:04;;;;;;;13.38;9.52;;;;;;;27.60;54.41;101092.88;4952751;29;20054;-80
2022/07/30 08:15:55;;;;;;;13.55;7.75;;;;;;;27.56;53.32;101075.34;4959129;28;20102;-79
2022/07/30 08:18:21;;;;;;;10.80;6.57;;;;;;;27.80;51.56;101085.16;4956183;29;20503;-80
2022/07/30 08:20:49;;;;;;;8.98;6.18;;;;;;;27.71;52.01;101090.13;4953123;28;20051;-80
2022/07/30 08:23:18;;;;;;;7.78;6.80;;;;;;;27.73;52.48;101084.44;4951837;29;20048;-80
2022/07/30 08:25:44;;;;;;;9.00;8.02;;;;;;;27.53;52.72;101048.56;4952829;29;20059;-81
2022/07/30 08:28:11;;;;;;;9.60;8.70;;;;;;;27.71;53.01;101062.03;4952050;29;20486;-80
2022/07/30 08:30:58;;;;;;;7.07;6.38;;;;;;;28.08;52.01;101086.31;4952160;29;20649;-80
2022/07/30 08:33:28;;;;;;;7.88;7.15;;;;;;;28.08;51.69;101072.66;4951369;29;20047;-81
2022/07/30 08:35:54;;;;;;;8.77;7.25;;;;;;;28.00;50.52;101032.94;4951418;29;20095;-81
2022/07/30 08:38:28;;;;;;;8.95;5.45;;;;;;;28.24;50.63;101087.47;4951119;29;20043;-81
2022/07/30 08:40:55;;;;;;;7.32;5.68;;;;;;;28.04;50.61;101047.78;4951102;29;20106;-78
2022/07/30 08:43:25;;;;;;;9.77;6.47;;;;;;;28.26;50.60;101093.53;4951554;28;20059;-79
2022/07/30 08:45:55;;;;;;;;;;;;;;;28.34;50.57;101083.03;4957928;29;20055;-78
2022/07/30 08:48:22;;;;;;;9.13;6.15;;;;;;;28.09;50.60;101047.06;4958730;29;19934;-80
2022/07/30 08:50:50;;;;;;;4.57;3.60;;;;;;;28.55;48.53;101084.28;4952978;29;20485;-79
2022/07/30 08:53:17;;;;;;;7.20;5.25;;;;;;;28.42;48.85;101068.16;4951623;29;20122;-80
2022/07/30 08:55:45;;;;;;;7.18;4.53;;;;;;;28.45;49.43;101088.69;4951613;29;20156;-81
2022/07/30 08:58:35;;;;;;;8.40;7.60;;;;;;;28.61;50.16;101098.84;4951245;29;20106;-81
2022/07/30 09:01:06;;;;;;;8.25;7.05;;;;;;;28.81;49.97;101098.41;4953174;28;20051;-80
2022/07/30 09:03:36;;;;;;;7.00;6.30;;;;;;;28.89;49.84;101089.00;4951574;29;20094;-81
2022/07/30 09:06:14;;;;;;;7.25;6.55;;;;;;;28.93;49.06;101090.13;4951211;29;20081;-81
2022/07/30 09:08:50;;;;;;;12.43;6.65;;;;;;;27.63;49.61;100885.97;4952418;29;20082;-78
2022/07/30 09:11:26;;;;;;;8.75;6.95;;;;;;;28.73;49.09;101061.38;4952431;29;20396;-81
2022/07/30 09:13:53;;;;;;;8.00;6.15;;;;;;;29.05;48.90;101088.16;4951393;29;20055;-81
2022/07/30 09:16:23;;;;;;;7.57;6.15;;;;;;;28.51;48.68;100995.72;4952493;29;20921;-80
2022/07/30 09:18:51;;;;;;;5.80;4.57;;;;;;;29.29;48.17;101104.44;4950648;29;20048;-80
2022/07/30 09:21:20;;;;;;;5.38;4.55;;;;;;;28.42;47.73;100952.66;4950605;29;20493;-81
2022/07/30 09:24:14;;;;;;;5.10;4.70;;;;;;;29.29;47.35;101109.91;4948864;29;20055;-80
2022/07/30 09:27:11;;;;;;;5.45;4.45;;;;;;;29.56;46.29;101099.94;4950747;29;20458;-78
2022/07/30 09:29:37;;;;;;;6.70;4.72;;;;;;;29.11;47.21;101068.06;4946769;28;20043;-79
2022/07/30 09:32:06;;;;;;;5.93;5.38;;;;;;;29.32;47.03;101082.91;4950054;29;20067;-79
2022/07/30 09:34:35;;;;;;;6.20;4.78;;;;;;;29.38;47.55;101094.75;4951165;29;20047;-78
2022/07/30 09:37:20;;;;;;;5.32;4.60;;;;;;;29.60;46.04;101098.34;4950656;29;20051;-80
2022/07/30 09:39:47;;;;;;;6.32;4.82;;;;;;;28.94;46.49;100977.03;4949626;29;20063;-80
2022/07/30 09:42:27;;;;;;;5.03;4.53;;;;;;;29.87;45.84;101099.59;4952664;28;20078;-80
2022/07/30 09:45:09;;;;;;;4.68;4.28;;;;;;;29.92;45.91;101083.22;4952515;28;20051;-81
2022/07/30 09:47:42;;;;;;;6.95;5.07;;;;;;;29.96;45.69;101081.66;4952572;29;20114;-79
2022/07/30 09:50:18;;;;;;;7.50;5.13;;;;;;;29.98;45.88;101085.78;4952891;29;20141;-81
2022/07/30 09:53:08;;;;;;;5.35;4.85;;;;;;;30.24;45.51;101088.81;4943917;29;20149;-80
2022/07/30 09:55:38;;;;;;;5.93;4.82;;;;;;;30.16;45.57;101081.06;4960300;29;20066;-80
2022/07/30 09:58:09;;;;;;;5.72;4.65;;;;;;;30.26;44.85;101063.97;4969255;28;20115;-81
2022/07/30 10:00:42;;;;;;;4.78;4.18;;;;;;;30.33;44.49;101076.34;4967298;29;20191;-80
2022/07/30 10:03:24;;;;;;;5.80;4.90;;;;;;;30.48;43.99;101085.84;4955838;29;20075;-81
2022/07/30 10:06:04;;;;;;;6.30;4.78;;;;;;;30.56;44.13;101080.72;4969366;28;20078;-79
2022/07/30 10:08:56;;;;;;;6.55;5.18;;;;;;;30.63;44.24;101085.97;4953175;29;20047;-80
2022/07/30 10:11:25;;;;;;;6.30;5.53;;;;;;;30.53;44.25;101074.94;4953459;29;20138;-79
2022/07/30 10:14:00;;;;;;;6.05;5.22;;;;;;;30.71;44.01;101077.31;4957095;28;20454;-80
2022/07/30 10:16:28;;;;;;;6.25;4.47;;;;;;;30.42;44.16;101011.81;4956991;29;20134;-79
2022/07/30 10:18:58;;;;;;;6.32;5.15;;;;;;;31.08;43.71;101087.53;4953970;29;20081;-80
2022/07/30 10:21:27;;;;;;;6.80;6.10;;;;;;;31.25;43.28;101070.94;4954222;29;20087;-79
2022/07/30 10:23:58;;;;;;;7.97;5.03;;;;;;;31.44;43.08;101096.88;4953752;29;20057;-78
2022/07/30 10:26:26;;;;;;;8.95;5.30;;;;;;;31.43;43.01;101039.53;4952700;29;20421;-79
2022/07/30 10:28:54;;;;;;;4.60;4.20;;;;;;;31.78;42.53;101079.25;4952925;29;20051;-80
2022/07/30 10:31:25;;;;;;;4.63;4.28;;;;;;;31.45;40.50;100987.97;4953149;29;20320;-80
2022/07/30 10:34:15;;;;;;;4.88;4.47;;;;;;;31.98;39.95;101078.53;4954002;28;20047;-79
2022/07/30 10:36:48;;;;;;;5.75;3.80;;;;;;;31.90;40.68;101077.94;4953660;28;20059;-78
2022/07/30 10:39:25;;;;;;;3.85;3.55;;;;;;;31.65;39.87;101010.03;4951146;29;20066;-79
2022/07/30 10:42:01;;;;;;;4.38;3.60;;;;;;;32.10;40.43;101060.75;4952429;29;20418;-79
2022/07/30 10:45:00;;;;;;;8.25;4.28;;;;;;;32.28;39.88;101072.31;4952043;29;20410;-79
2022/07/30 10:47:29;;;;;;;6.35;4.05;;;;;;;32.02;40.04;101016.50;4924070;28;20432;-79
2022/07/30 10:50:14;;;;;;;5.63;4.72;;;;;;;32.22;40.37;101010.25;4959770;29;20082;-79
2022/07/30 10:52:59;;;;;;;4.00;3.47;;;;;;;32.65;39.52;101050.19;4956588;29;20175;-81
2022/07/30 10:55:32;;;;;;;7.95;4.32;;;;;;;32.64;39.07;101025.72;4952700;29;20047;-79
2022/07/30 10:58:14;;;;;;;3.88;3.40;;;;;;;32.53;37.48;100981.75;4953597;28;20061;-80
2022/07/30 11:00:51;;;;;;;3.92;3.53;;;;;;;33.20;37.64;101039.47;4952670;29;20047;-81
2022/07/30 11:03:30;;;;;;;3.58;3.28;;;;;;;33.16;37.04;101021.88;4952402;29;20465;-81
2022/07/30 11:06:16;;;;;;;5.25;4.10;;;;;;;33.36;37.01;101041.09;4952353;29;20077;-82
2022/07/30 11:08:50;;;;;;;4.47;3.38;;;;;;;33.34;36.81;101029.53;4952535;29;20122;-81
2022/07/30 11:11:22;;;;;;;3.80;3.30;;;;;;;33.66;37.44;101042.13;4951939;29;20059;-82
2022/07/30 11:14:11;;;;;;;4.55;3.72;;;;;;;33.56;36.22;100989.88;4951681;29;20145;-81
2022/07/30 11:16:38;;;;;;;4.97;4.18;;;;;;;33.91;36.40;101037.63;4952778;29;20063;-82
2022/07/30 11:19:12;;;;;;;3.67;3.38;;;;;;;33.84;35.68;101016.75;4953987;28;20051;-82
2022/07/30 11:22:25;;;;;;;4.82;3.25;;;;;;;34.07;36.23;101022.69;4952129;29;20497;-81
2022/07/30 11:24:52;;;;;;;4.07;3.50;;;;;;;33.89;36.11;100984.75;4951981;28;20141;-82
2022/07/30 11:27:47;;;;;;;6.30;3.80;;;;;;;34.37;35.60;101029.13;4953041;29;20086;-81
2022/07/30 11:30:14;;;;;;;4.18;3.78;;;;;;;34.45;35.69;101036.81;4951549;28;20098;-81
2022/07/30 11:33:04;;;;;;;5.38;3.42;;;;;;;34.25;34.87;100955.09;4952380;28;20659;-81
2022/07/30 11:35:31;;;;;;;4.95;3.90;;;;;;;34.57;34.65;100965.59;4950904;29;20051;-80